createdAt,value
2023-08-10T00:00:45.463Z,79.94
2023-08-10T00:03:31.778Z,79.90
2023-08-10T00:05:58.398Z,80.04
2023-08-10T00:08:24.647Z,80.12
2023-08-10T00:10:51.182Z,80.24
2023-08-10T00:13:17.897Z,80.28
2023-08-10T00:15:44.233Z,80.35
2023-08-10T00:18:10.847Z,80.61
2023-08-10T00:20:37.274Z,80.75
2023-08-10T00:23:06.031Z,80.67
2023-08-10T00:25:33.732Z,80.78
2023-08-10T00:28:00.249Z,81.00
2023-08-10T00:30:28.160Z,81.47
2023-08-10T00:32:57.452Z,81.61
2023-08-10T00:35:26.284Z,81.42
2023-08-10T00:37:52.585Z,81.55
2023-08-10T00:40:18.916Z,81.62
2023-08-10T00:42:45.319Z,81.74
2023-08-10T00:45:11.618Z,81.78
2023-08-10T00:47:41.732Z,81.83
2023-08-10T00:50:09.405Z,81.79
2023-08-10T00:52:36.799Z,81.87
2023-08-10T00:55:03.558Z,81.82
2023-08-10T00:57:30.178Z,81.91
2023-08-10T00:59:56.586Z,81.82
2023-08-10T01:02:23.254Z,81.78
2023-08-10T01:04:50.002Z,81.82
2023-08-10T01:07:26.354Z,82.07
2023-08-10T01:10:11.672Z,82.07
2023-08-10T01:12:41.526Z,82.22
2023-08-10T01:15:13.593Z,82.33
2023-08-10T01:17:42.301Z,82.37
2023-08-10T01:20:09.760Z,82.47
2023-08-10T01:22:39.535Z,82.49
2023-08-10T01:25:06.797Z,82.46
2023-08-10T01:27:35.078Z,82.50
2023-08-10T01:30:02.434Z,83.00
2023-08-10T01:32:30.361Z,82.76
2023-08-10T01:35:00.622Z,82.94
2023-08-10T01:37:27.465Z,82.84
2023-08-10T01:39:53.858Z,83.16
2023-08-10T01:42:21.800Z,83.17
2023-08-10T01:44:48.113Z,83.32
2023-08-10T01:47:34.634Z,83.46
2023-08-10T01:50:02.676Z,83.98
2023-08-10T01:52:32.315Z,83.98
2023-08-10T01:54:59.116Z,84.01
2023-08-10T01:57:25.882Z,84.46
2023-08-10T01:59:52.240Z,84.59
2023-08-10T02:02:18.477Z,84.66
2023-08-10T02:04:44.749Z,84.67
2023-08-10T02:07:11.258Z,84.83
2023-08-10T02:09:38.317Z,84.71
2023-08-10T02:12:05.259Z,84.72
2023-08-10T02:14:32.164Z,84.57
2023-08-10T02:16:58.747Z,84.75
2023-08-10T02:19:25.395Z,84.78
2023-08-10T02:21:52.026Z,84.79
2023-08-10T02:24:18.460Z,84.75
2023-08-10T02:26:45.072Z,84.87
2023-08-10T02:29:11.324Z,84.81
2023-08-10T02:31:37.772Z,84.75
2023-08-10T02:34:04.257Z,84.77
2023-08-10T02:36:30.840Z,84.77
2023-08-10T02:38:57.189Z,84.83
2023-08-10T02:41:23.434Z,84.85
2023-08-10T02:43:51.435Z,84.69
2023-08-10T02:46:18.425Z,84.85
2023-08-10T02:48:44.845Z,85.15
2023-08-10T02:51:11.300Z,85.37
2023-08-10T02:53:37.785Z,85.28
2023-08-10T02:56:04.754Z,85.30
2023-08-10T02:58:31.226Z,85.57
2023-08-10T03:00:57.704Z,85.42
2023-08-10T03:03:26.376Z,85.22
2023-08-10T03:05:53.052Z,85.17
2023-08-10T03:08:19.579Z,85.22
2023-08-10T03:10:46.144Z,85.19
2023-08-10T03:13:14.237Z,85.34
2023-08-10T03:15:41.221Z,85.20
2023-08-10T03:18:07.931Z,85.09
2023-08-10T03:20:34.406Z,85.20
2023-08-10T03:23:01.537Z,85.38
2023-08-10T03:25:28.594Z,85.33
2023-08-10T03:27:56.094Z,85.63
2023-08-10T03:30:23.011Z,85.78
2023-08-10T03:32:49.830Z,85.67
2023-08-10T03:35:16.708Z,85.78
2023-08-10T03:37:43.395Z,85.95
2023-08-10T03:40:10.155Z,86.07
2023-08-10T03:42:37.063Z,85.87
2023-08-10T03:45:04.985Z,86.14
2023-08-10T03:47:31.445Z,86.14
2023-08-10T03:49:57.913Z,86.09
2023-08-10T03:52:24.848Z,86.30
2023-08-10T03:54:51.450Z,86.52
2023-08-10T03:57:18.006Z,86.38
2023-08-10T03:59:45.126Z,86.51
2023-08-10T04:02:12.010Z,86.56
2023-08-10T04:04:38.900Z,86.77
2023-08-10T04:07:05.410Z,86.97
2023-08-10T04:09:31.884Z,86.67
2023-08-10T04:11:58.635Z,86.73
2023-08-10T04:14:25.200Z,86.87
2023-08-10T04:16:52.214Z,86.90
2023-08-10T04:19:18.905Z,86.85
2023-08-10T04:21:45.758Z,87.10
2023-08-10T04:24:12.133Z,87.02
2023-08-10T04:26:38.921Z,86.94
2023-08-10T04:29:06.972Z,86.94
2023-08-10T04:31:33.572Z,86.95
2023-08-10T04:34:00.040Z,86.89
2023-08-10T04:36:26.337Z,86.88
2023-08-10T04:38:52.864Z,86.85
2023-08-10T04:41:19.416Z,87.13
2023-08-10T04:43:45.902Z,86.73
2023-08-10T04:46:12.533Z,86.47
2023-08-10T04:48:39.032Z,86.76
2023-08-10T04:51:05.575Z,86.45
2023-08-10T04:53:32.192Z,86.43
2023-08-10T04:55:58.686Z,86.29
2023-08-10T04:58:25.134Z,86.21
2023-08-10T05:00:53.453Z,86.16
2023-08-10T05:03:22.825Z,86.08
2023-08-10T05:05:50.320Z,86.17
2023-08-10T05:08:16.793Z,86.07
2023-08-10T05:10:44.201Z,86.12
2023-08-10T05:13:15.758Z,86.12
2023-08-10T05:15:42.386Z,86.25
2023-08-10T05:18:08.934Z,86.27
2023-08-10T05:20:36.703Z,86.35
2023-08-10T05:23:03.403Z,86.18
2023-08-10T05:25:29.956Z,86.21
2023-08-10T05:27:56.730Z,86.07
2023-08-10T05:30:23.308Z,85.87
2023-08-10T05:32:49.964Z,85.66
2023-08-10T05:35:16.755Z,85.48
2023-08-10T05:37:43.596Z,85.53
2023-08-10T05:40:11.318Z,85.26
2023-08-10T05:42:38.760Z,85.16
2023-08-10T05:45:09.202Z,85.24
2023-08-10T05:47:36.524Z,85.43
2023-08-10T05:50:03.338Z,85.29
2023-08-10T05:52:30.152Z,85.03
2023-08-10T05:54:56.665Z,84.65
2023-08-10T05:57:22.992Z,84.51
2023-08-10T05:59:49.249Z,84.49
2023-08-10T06:02:15.517Z,84.55
2023-08-10T06:04:42.363Z,84.51
2023-08-10T06:07:09.072Z,84.47
2023-08-10T06:09:35.544Z,84.41
2023-08-10T06:12:02.539Z,84.13
2023-08-10T06:14:28.812Z,84.07
2023-08-10T06:16:55.360Z,84.13
2023-08-10T06:19:21.792Z,84.05
2023-08-10T06:21:48.975Z,83.96
2023-08-10T06:24:16.629Z,83.83
2023-08-10T06:26:43.323Z,83.54
2023-08-10T06:29:09.892Z,83.40
2023-08-10T06:31:36.608Z,83.12
2023-08-10T06:34:06.576Z,83.00
2023-08-10T06:36:37.156Z,82.85
2023-08-10T06:39:05.161Z,82.74
2023-08-10T06:41:31.931Z,82.29
2023-08-10T06:43:58.450Z,82.10
2023-08-10T06:46:25.093Z,81.47
2023-08-10T06:48:52.138Z,81.15
2023-08-10T06:51:18.745Z,81.27
2023-08-10T06:53:45.507Z,80.87
2023-08-10T06:56:11.905Z,80.79
2023-08-10T07:01:07.899Z,80.31
2023-08-10T07:03:36.195Z,79.86
2023-08-10T07:06:02.751Z,79.52
2023-08-10T07:08:29.159Z,79.00
2023-08-10T07:10:55.675Z,78.73
2023-08-10T07:13:22.200Z,78.47
2023-08-10T07:15:51.396Z,78.08
2023-08-10T07:18:18.103Z,77.67
2023-08-10T07:20:44.686Z,77.24
2023-08-10T07:23:12.001Z,76.51
2023-08-10T07:25:38.551Z,75.94
2023-08-10T07:28:08.194Z,75.19
2023-08-10T07:30:35.116Z,74.93
2023-08-10T07:33:02.290Z,74.69
2023-08-10T07:35:29.156Z,74.28
2023-08-10T07:37:55.671Z,73.91
2023-08-10T07:40:22.214Z,73.60
2023-08-10T07:42:48.645Z,73.35
2023-08-10T07:45:15.129Z,73.26
2023-08-10T07:47:44.542Z,72.52
2023-08-10T07:50:17.044Z,71.01
2023-08-10T07:52:44.372Z,70.65
2023-08-10T07:55:13.410Z,70.59
2023-08-10T07:57:40.154Z,70.14
2023-08-10T08:00:11.531Z,69.31
2023-08-10T08:02:42.453Z,69.19
2023-08-10T08:05:14.144Z,68.81
2023-08-10T08:07:41.326Z,67.08
2023-08-10T08:10:09.426Z,66.56
2023-08-10T08:12:39.168Z,66.01
2023-08-10T08:15:06.513Z,65.78
2023-08-10T08:17:52.959Z,65.40
2023-08-10T08:20:20.256Z,65.72
2023-08-10T08:22:47.645Z,65.16
2023-08-10T08:25:15.844Z,64.04
2023-08-10T08:27:43.047Z,63.62
2023-08-10T08:30:13.321Z,63.48
2023-08-10T08:32:51.680Z,62.55
2023-08-10T08:35:19.841Z,62.31
2023-08-10T08:37:46.318Z,61.23
2023-08-10T08:40:15.502Z,61.71
2023-08-10T08:42:48.753Z,61.76
2023-08-10T08:45:16.934Z,60.18
2023-08-10T08:47:45.148Z,58.61
2023-08-10T08:50:19.217Z,56.51
2023-08-10T08:52:46.164Z,56.54
2023-08-10T08:55:14.615Z,54.45
2023-08-10T08:57:41.378Z,55.22
2023-08-10T09:00:09.348Z,55.54
2023-08-10T09:02:36.080Z,54.45
2023-08-10T09:05:04.015Z,55.16
2023-08-10T09:07:30.915Z,55.11
2023-08-10T09:09:57.969Z,55.02
2023-08-10T09:12:45.368Z,54.77
2023-08-10T09:15:13.088Z,53.93
2023-08-10T09:17:44.158Z,52.51
2023-08-10T09:20:17.146Z,52.25
2023-08-10T09:22:44.925Z,52.68
2023-08-10T09:25:13.951Z,50.74
2023-08-10T09:27:43.182Z,49.95
2023-08-10T09:30:11.184Z,49.20
2023-08-10T09:32:39.968Z,48.77
2023-08-10T09:35:15.635Z,48.74
2023-08-10T09:37:42.928Z,48.75
2023-08-10T09:40:11.806Z,49.36
2023-08-10T09:42:40.670Z,49.39
2023-08-10T09:45:08.894Z,49.15
2023-08-10T09:47:37.998Z,48.14
2023-08-10T09:50:06.709Z,47.48
2023-08-10T09:52:34.769Z,47.12
2023-08-10T09:55:01.536Z,45.58
2023-08-10T09:57:28.900Z,45.32
2023-08-10T09:59:56.551Z,45.98
2023-08-10T10:02:23.779Z,45.53
2023-08-10T10:04:51.992Z,45.11
2023-08-10T10:07:27.940Z,45.40
2023-08-10T10:09:57.239Z,44.79
2023-08-10T10:12:24.239Z,44.45
2023-08-10T10:14:52.195Z,44.50
2023-08-10T10:17:19.941Z,44.28
2023-08-10T10:19:51.435Z,42.88
2023-08-10T10:22:18.654Z,42.01
2023-08-10T10:24:47.236Z,41.74
2023-08-10T10:27:14.185Z,41.85
2023-08-10T10:29:41.352Z,41.77
2023-08-10T10:32:09.447Z,41.85
2023-08-10T10:34:37.768Z,41.84
2023-08-10T10:37:12.309Z,42.08
2023-08-10T10:39:40.001Z,41.77
2023-08-10T10:42:06.685Z,41.85
2023-08-10T10:44:52.470Z,40.86
2023-08-10T10:47:19.251Z,40.17
2023-08-10T10:49:55.282Z,40.47
2023-08-10T10:52:37.252Z,40.50
2023-08-10T10:55:08.566Z,39.30
2023-08-10T10:57:36.881Z,38.73
2023-08-10T11:00:04.326Z,38.77
2023-08-10T11:02:33.941Z,38.99
2023-08-10T11:05:03.654Z,39.04
2023-08-10T11:07:30.580Z,38.67
2023-08-10T11:10:04.007Z,38.34
2023-08-10T11:12:30.532Z,38.27
2023-08-10T11:14:57.011Z,38.01
2023-08-10T11:17:29.193Z,37.86
2023-08-10T11:19:57.405Z,38.11
2023-08-10T11:22:24.459Z,37.65
2023-08-10T11:24:56.764Z,37.72
2023-08-10T11:27:23.503Z,37.45
2023-08-10T11:29:50.852Z,37.14
2023-08-10T11:32:21.669Z,37.43
2023-08-10T11:34:48.939Z,37.55
2023-08-10T11:37:15.529Z,37.88
2023-08-10T11:39:42.043Z,37.58
2023-08-10T11:42:09.071Z,37.67
2023-08-10T11:44:43.905Z,37.69
2023-08-10T11:47:14.012Z,37.46
2023-08-10T11:49:41.172Z,37.38
2023-08-10T11:52:15.631Z,36.52
2023-08-10T11:54:49.973Z,36.32
2023-08-10T11:57:16.726Z,36.45
2023-08-10T11:59:43.696Z,36.28
2023-08-10T12:02:18.018Z,36.73
2023-08-10T12:04:44.960Z,35.82
2023-08-10T12:07:12.182Z,35.62
2023-08-10T12:09:48.202Z,35.53
2023-08-10T12:12:15.228Z,35.85
2023-08-10T12:14:42.184Z,36.04
2023-08-10T12:17:12.115Z,35.92
2023-08-10T12:19:38.767Z,35.38
2023-08-10T12:22:06.729Z,35.46
2023-08-10T12:24:33.922Z,35.46
2023-08-10T12:27:03.942Z,36.01
2023-08-10T12:29:31.237Z,35.68
2023-08-10T12:32:01.189Z,35.70
2023-08-10T12:34:33.670Z,35.78
2023-08-10T12:37:03.203Z,35.66
2023-08-10T12:39:31.963Z,35.28
2023-08-10T12:42:03.327Z,35.22
2023-08-10T12:44:32.759Z,34.96
2023-08-10T12:46:59.266Z,34.31
2023-08-10T12:49:25.882Z,33.59
2023-08-10T12:51:52.774Z,34.20
2023-08-10T12:54:21.700Z,34.13
2023-08-10T12:56:53.839Z,34.27
2023-08-10T12:59:20.850Z,34.02
2023-08-10T13:01:48.009Z,34.38
2023-08-10T13:04:15.043Z,34.15
2023-08-10T13:06:41.702Z,34.06
2023-08-10T13:09:08.737Z,33.58
2023-08-10T13:11:37.129Z,33.48
2023-08-10T13:14:04.087Z,33.48
2023-08-10T13:16:30.853Z,32.79
2023-08-10T13:18:57.677Z,32.91
2023-08-10T13:21:24.397Z,32.74
2023-08-10T13:23:51.107Z,32.62
2023-08-10T13:26:17.882Z,32.32
2023-08-10T13:28:44.340Z,32.24
2023-08-10T13:31:10.915Z,32.18
2023-08-10T13:33:38.720Z,31.96
2023-08-10T13:36:06.280Z,31.46
2023-08-10T13:38:32.762Z,31.32
2023-08-10T13:41:02.505Z,31.07
2023-08-10T13:43:28.987Z,30.72
2023-08-10T13:45:56.166Z,30.73
2023-08-10T13:48:23.839Z,30.08
2023-08-10T13:50:52.297Z,28.33
2023-08-10T13:53:20.118Z,27.87
2023-08-10T13:55:47.222Z,27.03
2023-08-10T13:58:15.832Z,26.96
2023-08-10T14:00:42.769Z,27.49
2023-08-10T14:03:10.691Z,27.97
2023-08-10T14:05:37.293Z,28.28
2023-08-10T14:08:04.282Z,28.28
2023-08-10T14:10:30.777Z,28.20
2023-08-10T14:12:57.678Z,28.65
2023-08-10T14:15:24.234Z,28.98
2023-08-10T14:17:53.307Z,29.32
2023-08-10T14:20:21.317Z,29.88
2023-08-10T14:22:47.831Z,30.18
2023-08-10T14:25:17.203Z,30.60
2023-08-10T14:27:43.497Z,30.66
2023-08-10T14:30:10.788Z,30.93
2023-08-10T14:32:37.452Z,31.04
2023-08-10T14:35:04.178Z,30.83
2023-08-10T14:37:30.695Z,30.83
2023-08-10T14:39:58.827Z,31.12
2023-08-10T14:42:25.171Z,30.47
2023-08-10T14:44:55.237Z,30.19
2023-08-10T14:47:22.154Z,29.78
2023-08-10T14:49:48.957Z,29.55
2023-08-10T14:52:15.485Z,29.31
2023-08-10T14:54:41.858Z,28.78
2023-08-10T14:57:08.146Z,28.11
2023-08-10T14:59:35.847Z,26.98
2023-08-10T15:02:02.475Z,26.56
2023-08-10T15:04:28.929Z,27.26
2023-08-10T15:06:55.477Z,27.42
2023-08-10T15:09:22.336Z,26.98
2023-08-10T15:11:48.684Z,27.07
2023-08-10T15:14:15.247Z,27.15
2023-08-10T15:16:41.878Z,27.15
2023-08-10T15:19:08.178Z,27.35
2023-08-10T15:21:37.326Z,27.50
2023-08-10T15:24:04.281Z,27.56
2023-08-10T15:26:30.591Z,27.62
2023-08-10T15:28:57.078Z,27.78
2023-08-10T15:31:23.603Z,27.91
2023-08-10T15:33:50.155Z,27.93
2023-08-10T15:36:16.655Z,28.59
2023-08-10T15:38:43.189Z,28.46
2023-08-10T15:41:09.408Z,28.61
2023-08-10T15:43:35.817Z,28.88
2023-08-10T15:46:02.314Z,28.84
2023-08-10T15:48:28.742Z,28.72
2023-08-10T15:50:55.397Z,28.44
2023-08-10T15:53:22.089Z,28.35
2023-08-10T15:55:50.503Z,28.42
2023-08-10T15:58:17.500Z,28.56
2023-08-10T16:00:44.296Z,28.68
2023-08-10T16:03:10.660Z,28.73
2023-08-10T16:05:37.673Z,28.56
2023-08-10T16:08:07.027Z,28.42
2023-08-10T16:10:34.754Z,28.22
2023-08-10T16:13:02.515Z,28.03
2023-08-10T16:15:35.105Z,27.51
2023-08-10T16:18:04.044Z,27.10
2023-08-10T16:20:32.597Z,26.61
2023-08-10T16:23:01.231Z,26.33
2023-08-10T16:25:30.577Z,26.02
2023-08-10T16:27:57.958Z,25.40
2023-08-10T16:30:25.055Z,25.07
2023-08-10T16:32:52.531Z,24.58
2023-08-10T16:35:33.668Z,23.98
2023-08-10T16:38:02.113Z,23.93
2023-08-10T16:40:28.758Z,23.87
2023-08-10T16:42:56.513Z,23.95
2023-08-10T16:45:23.795Z,24.20
2023-08-10T16:47:50.795Z,24.39
2023-08-10T16:50:17.318Z,24.59
2023-08-10T16:52:46.855Z,24.90
2023-08-10T16:55:14.097Z,24.99
2023-08-10T16:57:42.177Z,25.46
2023-08-10T17:00:09.845Z,26.03
2023-08-10T17:02:36.773Z,26.09
2023-08-10T17:05:03.720Z,26.15
2023-08-10T17:07:30.090Z,26.06
2023-08-10T17:09:57.304Z,26.05
2023-08-10T17:12:25.055Z,25.81
2023-08-10T17:14:52.807Z,25.53
2023-08-10T17:17:20.285Z,25.68
2023-08-10T17:19:48.555Z,25.32
2023-08-10T17:22:17.292Z,25.47
2023-08-10T17:24:48.698Z,25.45
2023-08-10T17:27:16.485Z,25.06
2023-08-10T17:29:52.016Z,25.03
2023-08-10T17:32:19.142Z,25.05
2023-08-10T17:34:46.470Z,25.45
2023-08-10T17:37:14.272Z,25.73
2023-08-10T17:39:43.328Z,26.13
2023-08-10T17:42:12.818Z,26.40
2023-08-10T17:44:39.408Z,27.06
2023-08-10T17:47:08.664Z,27.32
2023-08-10T17:49:35.931Z,27.52
2023-08-10T17:52:02.515Z,28.46
2023-08-10T17:54:29.392Z,28.52
2023-08-10T17:56:55.741Z,28.64
2023-08-10T17:59:22.822Z,28.81
2023-08-10T18:01:50.112Z,29.17
2023-08-10T18:04:17.722Z,29.50
2023-08-10T18:06:44.166Z,29.66
2023-08-10T18:09:10.574Z,30.12
2023-08-10T18:11:36.894Z,30.41
2023-08-10T18:14:03.711Z,30.73
2023-08-10T18:16:30.520Z,31.12
2023-08-10T18:18:56.982Z,31.62
2023-08-10T18:21:23.465Z,31.91
2023-08-10T18:23:49.957Z,32.26
2023-08-10T18:26:16.288Z,32.57
2023-08-10T18:28:42.994Z,33.27
2023-08-10T18:31:09.768Z,33.57
2023-08-10T18:33:36.752Z,33.97
2023-08-10T18:36:03.929Z,34.43
2023-08-10T18:38:30.343Z,34.99
2023-08-10T18:40:56.729Z,35.24
2023-08-10T18:43:23.311Z,35.76
2023-08-10T18:45:50.338Z,36.22
2023-08-10T18:48:19.343Z,36.66
2023-08-10T18:50:45.987Z,36.98
2023-08-10T18:53:12.659Z,37.55
2023-08-10T18:55:39.245Z,37.85
2023-08-10T18:58:05.740Z,38.14
2023-08-10T19:00:32.501Z,38.44
2023-08-10T19:03:01.401Z,38.63
2023-08-10T19:05:29.794Z,38.97
2023-08-10T19:07:56.334Z,39.23
2023-08-10T19:10:23.269Z,39.38
2023-08-10T19:12:49.573Z,39.65
2023-08-10T19:15:18.173Z,40.01
2023-08-10T19:17:46.700Z,40.39
2023-08-10T19:20:13.286Z,40.66
2023-08-10T19:22:39.849Z,41.01
2023-08-10T19:25:06.262Z,41.17
2023-08-10T19:27:32.521Z,41.66
2023-08-10T19:29:58.767Z,42.00
2023-08-10T19:32:25.232Z,42.24
2023-08-10T19:34:52.925Z,42.49
2023-08-10T19:37:19.442Z,42.65
2023-08-10T19:39:48.982Z,43.05
2023-08-10T19:42:15.335Z,43.14
2023-08-10T19:44:41.897Z,43.27
2023-08-10T19:47:08.363Z,43.69
2023-08-10T19:49:34.658Z,43.84
2023-08-10T19:52:01.867Z,44.04
2023-08-10T19:54:28.324Z,44.37
2023-08-10T19:56:54.930Z,44.51
2023-08-10T19:59:21.202Z,44.69
2023-08-10T20:01:48.025Z,45.00
2023-08-10T20:04:14.512Z,45.07
2023-08-10T20:06:43.379Z,45.36
2023-08-10T20:09:11.144Z,45.72
2023-08-10T20:11:40.468Z,45.85
2023-08-10T20:14:08.411Z,46.20
2023-08-10T20:16:35.596Z,46.41
2023-08-10T20:19:03.041Z,46.62
2023-08-10T20:21:31.567Z,46.94
2023-08-10T20:24:08.397Z,47.14
2023-08-10T20:26:36.753Z,47.38
2023-08-10T20:29:05.040Z,47.71
2023-08-10T20:31:33.534Z,47.89
2023-08-10T20:34:01.785Z,48.20
2023-08-10T20:36:29.676Z,48.46
2023-08-10T20:38:57.038Z,48.64
2023-08-10T20:41:23.862Z,48.95
2023-08-10T20:43:54.772Z,49.18
2023-08-10T20:46:22.365Z,49.49
2023-08-10T20:48:50.736Z,49.75
2023-08-10T20:51:17.483Z,50.02
2023-08-10T20:53:44.851Z,50.26
2023-08-10T20:56:12.191Z,50.59
2023-08-10T20:58:40.579Z,50.91
2023-08-10T21:01:09.399Z,51.25
2023-08-10T21:03:44.632Z,51.66
2023-08-10T21:06:12.307Z,51.94
2023-08-10T21:08:44.736Z,52.08
2023-08-10T21:11:14.983Z,52.31
2023-08-10T21:13:42.144Z,52.52
2023-08-10T21:16:10.226Z,52.73
2023-08-10T21:18:43.588Z,53.14
2023-08-10T21:21:11.544Z,53.31
2023-08-10T21:23:38.526Z,53.66
2023-08-10T21:26:15.221Z,53.87
2023-08-10T21:28:41.761Z,54.06
2023-08-10T21:31:13.256Z,54.23
2023-08-10T21:33:40.735Z,54.50
2023-08-10T21:36:08.421Z,54.73
2023-08-10T21:38:43.518Z,54.99
2023-08-10T21:41:12.061Z,55.11
2023-08-10T21:43:41.219Z,55.33
2023-08-10T21:46:10.409Z,55.50
2023-08-10T21:48:38.394Z,55.57
2023-08-10T21:51:05.461Z,55.62
2023-08-10T21:53:32.553Z,55.71
2023-08-10T21:56:00.264Z,55.85
2023-08-10T21:58:27.229Z,55.88
2023-08-10T22:00:56.417Z,55.87
2023-08-10T22:03:23.102Z,55.92
2023-08-10T22:05:51.488Z,56.14
2023-08-10T22:08:21.692Z,56.25
2023-08-10T22:10:52.842Z,56.52
2023-08-10T22:13:19.398Z,56.57
2023-08-10T22:15:46.565Z,56.82
2023-08-10T22:18:14.824Z,57.06
2023-08-10T22:20:41.875Z,57.18
2023-08-10T22:23:09.403Z,57.53
2023-08-10T22:25:36.036Z,57.64
2023-08-10T22:28:03.711Z,57.90
2023-08-10T22:30:33.840Z,58.04
2023-08-10T22:33:01.024Z,58.27
2023-08-10T22:35:28.310Z,58.40
2023-08-10T22:37:57.984Z,58.63
2023-08-10T22:40:24.832Z,58.81
2023-08-10T22:42:51.832Z,58.94
2023-08-10T22:45:28.521Z,59.30
2023-08-10T22:47:55.673Z,59.35
2023-08-10T22:50:22.064Z,59.49
2023-08-10T22:52:48.857Z,59.54
2023-08-10T22:55:15.496Z,59.67
2023-08-10T22:57:41.845Z,59.81
2023-08-10T23:00:10.669Z,59.82
2023-08-10T23:02:37.424Z,60.17
2023-08-10T23:05:05.028Z,60.25
2023-08-10T23:07:31.736Z,60.35
2023-08-10T23:09:59.080Z,60.56
2023-08-10T23:12:27.399Z,60.64
2023-08-10T23:14:54.438Z,61.04
2023-08-10T23:17:21.749Z,60.99
2023-08-10T23:19:48.053Z,61.32
2023-08-10T23:22:14.716Z,61.36
2023-08-10T23:24:41.904Z,61.67
2023-08-10T23:27:08.226Z,61.74
2023-08-10T23:29:35.538Z,61.85
2023-08-10T23:32:03.915Z,61.97
2023-08-10T23:34:30.514Z,62.04
2023-08-10T23:36:57.798Z,62.32
2023-08-10T23:39:24.280Z,62.40
2023-08-10T23:41:51.484Z,62.60
2023-08-10T23:44:18.275Z,62.72
2023-08-10T23:46:45.265Z,62.80
2023-08-10T23:49:11.918Z,63.04
2023-08-10T23:51:38.742Z,63.18
2023-08-10T23:54:06.607Z,63.33
2023-08-10T23:56:33.485Z,63.75
2023-08-10T23:59:02.452Z,64.21
